Terminal Aerodrome Forecast
Issued by NWS

Home | Current Version | Previous Version | Text Only | Print | Product List | Glossary On
Versions: 1 2 3 4 5 6 7 8 9 10 11 12 13 14 15 16 17 18 19 20 21 22 23 24 25
000
FTUS41 KBOX 231723
TAFBED
TAF
KBED 231723Z 2318/2418 22010KT P6SM SCT050
     FM232300 23012KT P6SM VCTS BKN040CB
     FM240300 31005KT 5SM -SHRA BKN050
     FM241000 31004KT 5SM BR OVC040
     FM241300 33006KT 5SM BR BKN020=

USA.gov is the U.S. government's official web portal to all federal, state and local government web resources and services.